createdAt,value
2023-01-26T00:00:42.981Z,58.36
2023-01-26T00:02:14.583Z,58.54
2023-01-26T00:03:46.421Z,57.88
2023-01-26T00:05:18.047Z,58.44
2023-01-26T00:06:49.633Z,58.47
2023-01-26T00:08:21.178Z,58.09
2023-01-26T00:09:52.698Z,58.24
2023-01-26T00:11:26.971Z,57.81
2023-01-26T00:12:58.539Z,58.19
2023-01-26T00:14:49.922Z,58.33
2023-01-26T00:16:21.807Z,58.38
2023-01-26T00:17:53.346Z,57.94
2023-01-26T00:19:24.906Z,57.91
2023-01-26T00:20:57.781Z,57.79
2023-01-26T00:22:29.255Z,58.16
2023-01-26T00:24:00.929Z,57.45
2023-01-26T00:25:32.536Z,58.12
2023-01-26T00:27:04.088Z,58.07
2023-01-26T00:28:36.055Z,58.01
2023-01-26T00:30:08.004Z,57.74
2023-01-26T00:31:39.631Z,57.83
2023-01-26T00:33:11.221Z,57.87
2023-01-26T00:34:42.792Z,58.54
2023-01-26T00:36:14.384Z,58.11
2023-01-26T00:37:46.300Z,58.05
2023-01-26T00:39:18.611Z,58.20
2023-01-26T00:40:50.093Z,58.54
2023-01-26T00:42:22.946Z,58.96
2023-01-26T00:43:54.504Z,59.00
2023-01-26T00:45:25.977Z,58.59
2023-01-26T00:46:57.584Z,58.78
2023-01-26T00:48:29.200Z,58.47
2023-01-26T00:50:00.746Z,59.09
2023-01-26T00:51:32.248Z,58.81
2023-01-26T00:53:03.840Z,58.93
2023-01-26T00:54:35.428Z,58.54
2023-01-26T00:56:07.345Z,58.81
2023-01-26T00:57:39.367Z,58.39
2023-01-26T00:59:11.023Z,58.20
2023-01-26T01:00:42.802Z,58.44
2023-01-26T01:02:14.417Z,58.12
2023-01-26T01:03:46.063Z,58.42
2023-01-26T01:05:17.665Z,58.01
2023-01-26T01:06:49.294Z,58.24
2023-01-26T01:08:20.891Z,58.71
2023-01-26T01:09:52.459Z,58.23
2023-01-26T01:11:24.076Z,58.21
2023-01-26T01:12:56.807Z,58.49
2023-01-26T01:14:28.580Z,57.98
2023-01-26T01:16:00.290Z,57.99
2023-01-26T01:17:31.924Z,58.62
2023-01-26T01:19:03.494Z,58.41
2023-01-26T01:20:35.129Z,57.88
2023-01-26T01:22:07.226Z,58.38
2023-01-26T01:23:38.875Z,58.80
2023-01-26T01:25:10.700Z,58.52
2023-01-26T01:26:42.749Z,58.51
2023-01-26T01:28:14.397Z,58.36
2023-01-26T01:29:45.941Z,58.18
2023-01-26T01:31:17.583Z,58.00
2023-01-26T01:32:51.820Z,58.69
2023-01-26T01:34:23.448Z,57.96
2023-01-26T01:35:58.664Z,58.60
2023-01-26T01:37:30.546Z,58.07
2023-01-26T01:39:02.220Z,58.17
2023-01-26T01:40:34.099Z,58.21
2023-01-26T01:42:05.608Z,58.56
2023-01-26T01:43:37.163Z,58.27
2023-01-26T01:45:24.070Z,57.96
2023-01-26T01:46:59.629Z,58.72
2023-01-26T01:48:51.447Z,58.24
2023-01-26T01:50:23.449Z,58.41
2023-01-26T01:52:17.954Z,58.22
2023-01-26T01:53:53.659Z,58.70
2023-01-26T01:55:30.006Z,57.91
2023-01-26T01:58:57.670Z,58.45
2023-01-26T02:00:30.623Z,58.08
2023-01-26T02:02:02.351Z,58.36
2023-01-26T02:03:33.948Z,58.44
2023-01-26T02:05:12.268Z,58.19
2023-01-26T02:06:47.621Z,58.45
2023-01-26T02:08:19.712Z,58.42
2023-01-26T02:10:10.181Z,58.35
2023-01-26T02:11:42.171Z,58.35
2023-01-26T02:13:13.735Z,58.38
2023-01-26T02:14:45.321Z,58.55
2023-01-26T02:16:17.280Z,58.14
2023-01-26T02:17:48.987Z,58.16
2023-01-26T02:19:33.311Z,58.47
2023-01-26T02:21:07.090Z,58.30
2023-01-26T02:22:42.362Z,58.42
2023-01-26T02:24:21.929Z,58.79
2023-01-26T02:25:53.539Z,58.37
2023-01-26T02:27:25.448Z,58.35
2023-01-26T02:28:56.934Z,58.83
2023-01-26T02:30:28.537Z,58.54
2023-01-26T02:32:00.291Z,58.92
2023-01-26T02:33:32.097Z,58.96
2023-01-26T02:35:04.012Z,58.92
2023-01-26T02:36:35.627Z,58.91
2023-01-26T02:38:08.217Z,59.06
2023-01-26T02:40:00.168Z,58.88
2023-01-26T02:41:50.555Z,59.04
2023-01-26T02:43:22.884Z,58.72
2023-01-26T02:44:55.128Z,58.76
2023-01-26T02:46:26.677Z,58.75
2023-01-26T02:48:00.105Z,58.84
2023-01-26T02:49:50.193Z,58.99
2023-01-26T02:51:21.854Z,59.02
2023-01-26T02:52:53.486Z,58.86
2023-01-26T02:54:43.523Z,58.91
2023-01-26T02:56:15.345Z,58.72
2023-01-26T02:57:46.876Z,58.82
2023-01-26T02:59:18.377Z,59.00
2023-01-26T03:00:49.949Z,58.82
2023-01-26T03:02:21.868Z,58.87
2023-01-26T03:03:53.443Z,59.12
2023-01-26T03:05:25.757Z,58.73
2023-01-26T03:06:57.423Z,58.95
2023-01-26T03:08:29.019Z,59.00
2023-01-26T03:10:01.020Z,58.74
2023-01-26T03:11:42.197Z,58.69
2023-01-26T03:13:13.749Z,58.83
2023-01-26T03:14:45.291Z,59.08
2023-01-26T03:16:18.641Z,58.63
2023-01-26T03:17:50.328Z,58.97
2023-01-26T03:19:40.528Z,58.67
2023-01-26T03:21:31.501Z,58.87
2023-01-26T03:23:21.669Z,58.98
2023-01-26T03:25:11.884Z,58.92
2023-01-26T03:27:01.764Z,59.12
2023-01-26T03:28:33.711Z,59.21
2023-01-26T03:30:05.972Z,58.94
2023-01-26T03:31:37.723Z,59.14
2023-01-26T03:33:09.200Z,59.11
2023-01-26T03:34:40.738Z,59.22
2023-01-26T03:36:12.226Z,59.54
2023-01-26T03:37:43.841Z,59.45
2023-01-26T03:39:34.154Z,59.34
2023-01-26T03:41:24.199Z,59.31
2023-01-26T03:43:14.386Z,59.37
2023-01-26T03:45:04.718Z,59.52
2023-01-26T03:46:54.852Z,59.53
2023-01-26T03:48:44.898Z,59.64
2023-01-26T03:50:35.182Z,59.45
2023-01-26T03:52:25.277Z,59.57
2023-01-26T03:54:15.091Z,59.67
2023-01-26T03:56:05.273Z,59.88
2023-01-26T03:57:37.199Z,59.78
2023-01-26T03:59:09.421Z,59.73
2023-01-26T04:00:41.190Z,59.84
2023-01-26T04:02:31.516Z,59.42
2023-01-26T04:04:21.851Z,59.73
2023-01-26T04:06:15.495Z,59.81
2023-01-26T04:08:06.978Z,59.28
2023-01-26T04:09:39.740Z,59.68
2023-01-26T04:11:11.214Z,59.67
2023-01-26T04:12:42.787Z,59.94
2023-01-26T04:14:36.354Z,59.44
2023-01-26T04:16:40.632Z,59.69
2023-01-26T04:18:30.812Z,59.98
2023-01-26T04:20:20.792Z,59.71
2023-01-26T04:21:52.217Z,59.92
2023-01-26T04:23:24.032Z,59.72
2023-01-26T04:24:57.183Z,59.78
2023-01-26T04:26:34.964Z,59.99
2023-01-26T04:28:06.506Z,60.04
2023-01-26T04:29:37.993Z,60.18
2023-01-26T04:31:09.573Z,59.77
2023-01-26T04:32:41.344Z,59.80
2023-01-26T04:34:13.942Z,59.99
2023-01-26T04:35:45.378Z,59.94
2023-01-26T04:37:17.301Z,59.74
2023-01-26T04:38:49.679Z,59.54
2023-01-26T04:40:21.184Z,59.63
2023-01-26T04:41:52.627Z,59.65
2023-01-26T04:43:24.160Z,59.39
2023-01-26T04:44:55.635Z,59.96
2023-01-26T04:46:27.198Z,59.69
2023-01-26T04:47:58.672Z,59.69
2023-01-26T04:49:30.234Z,59.77
2023-01-26T04:51:02.762Z,59.99
2023-01-26T04:52:34.434Z,59.68
2023-01-26T04:54:06.244Z,59.83
2023-01-26T04:55:38.451Z,59.83
2023-01-26T04:57:09.916Z,59.77
2023-01-26T04:58:42.081Z,59.86
2023-01-26T05:00:14.632Z,59.96
2023-01-26T05:01:47.784Z,59.74
2023-01-26T05:03:19.464Z,59.74
2023-01-26T05:04:51.078Z,59.88
2023-01-26T05:06:22.597Z,59.70
2023-01-26T05:07:54.202Z,59.83
2023-01-26T05:09:25.709Z,59.81
2023-01-26T05:10:57.475Z,59.71
2023-01-26T05:12:34.810Z,59.95
2023-01-26T05:14:06.494Z,59.89
2023-01-26T05:15:38.046Z,59.88
2023-01-26T05:17:09.599Z,59.79
2023-01-26T05:18:41.404Z,59.71
2023-01-26T05:20:13.381Z,59.72
2023-01-26T05:21:45.189Z,59.82
2023-01-26T05:23:16.702Z,60.16
2023-01-26T05:24:48.242Z,59.80
2023-01-26T05:26:19.950Z,60.13
2023-01-26T05:27:52.954Z,59.76
2023-01-26T05:29:24.903Z,59.96
2023-01-26T05:30:56.340Z,59.99
2023-01-26T05:32:28.649Z,60.03
2023-01-26T05:34:00.196Z,59.93
2023-01-26T05:35:31.621Z,59.89
2023-01-26T05:37:03.160Z,59.82
2023-01-26T05:38:34.725Z,59.88
2023-01-26T05:40:06.480Z,59.95
2023-01-26T05:41:38.031Z,59.99
2023-01-26T05:43:09.779Z,60.10
2023-01-26T05:44:41.303Z,59.98
2023-01-26T05:46:12.928Z,60.22
2023-01-26T05:47:47.415Z,59.92
2023-01-26T05:49:18.912Z,60.21
2023-01-26T05:50:50.571Z,59.87
2023-01-26T05:52:23.728Z,59.89
2023-01-26T05:53:55.479Z,59.88
2023-01-26T05:55:27.793Z,60.07
2023-01-26T05:57:00.265Z,59.61
2023-01-26T05:58:31.983Z,59.79
2023-01-26T06:00:05.186Z,59.95
2023-01-26T06:01:36.903Z,60.02
2023-01-26T06:03:08.508Z,60.08
2023-01-26T06:04:40.067Z,59.88
2023-01-26T06:06:11.676Z,59.71
2023-01-26T06:07:43.219Z,59.76
2023-01-26T06:09:14.956Z,59.96
2023-01-26T06:10:46.501Z,59.90
2023-01-26T06:12:18.905Z,59.96
2023-01-26T06:13:50.726Z,59.68
2023-01-26T06:15:22.407Z,59.62
2023-01-26T06:16:54.869Z,59.93
2023-01-26T06:18:26.491Z,60.03
2023-01-26T06:19:58.772Z,59.63
2023-01-26T06:21:31.635Z,59.73
2023-01-26T06:23:03.368Z,59.73
2023-01-26T06:24:35.135Z,59.99
2023-01-26T06:26:09.380Z,59.95
2023-01-26T06:27:42.656Z,59.98
2023-01-26T06:29:14.849Z,59.80
2023-01-26T06:30:46.724Z,59.65
2023-01-26T06:32:18.712Z,59.85
2023-01-26T06:33:50.797Z,59.81
2023-01-26T06:35:22.342Z,59.85
2023-01-26T06:36:54.158Z,59.68
2023-01-26T06:38:25.829Z,59.69
2023-01-26T06:39:57.675Z,59.76
2023-01-26T06:41:29.631Z,59.72
2023-01-26T06:43:01.541Z,59.62
2023-01-26T06:44:33.705Z,59.69
2023-01-26T06:46:05.531Z,59.75
2023-01-26T06:47:37.291Z,59.58
2023-01-26T06:49:09.243Z,59.74
2023-01-26T06:50:40.892Z,59.83
2023-01-26T06:52:22.486Z,59.58
2023-01-26T06:53:54.689Z,59.55
2023-01-26T06:55:30.359Z,59.65
2023-01-26T06:57:02.313Z,59.73
2023-01-26T06:58:34.317Z,59.68
2023-01-26T07:00:06.177Z,59.58
2023-01-26T07:01:38.946Z,59.61
2023-01-26T07:03:10.854Z,59.66
2023-01-26T07:04:42.500Z,59.53
2023-01-26T07:06:14.117Z,59.61
2023-01-26T07:07:45.690Z,59.50
2023-01-26T07:09:17.226Z,59.69
2023-01-26T07:10:49.768Z,59.43
2023-01-26T07:12:25.082Z,59.63
2023-01-26T07:14:01.376Z,59.79
2023-01-26T07:15:37.214Z,59.69
2023-01-26T07:17:14.948Z,59.43
2023-01-26T07:24:17.708Z,59.57
2023-01-26T07:25:49.309Z,59.45
2023-01-26T07:27:20.966Z,59.75
2023-01-26T07:28:52.681Z,59.56
2023-01-26T07:30:24.364Z,59.37
2023-01-26T07:31:55.943Z,59.30
2023-01-26T07:33:30.425Z,59.36
2023-01-26T07:35:02.358Z,59.63
2023-01-26T07:36:34.138Z,59.34
2023-01-26T07:38:05.793Z,59.38
2023-01-26T07:39:38.031Z,59.48
2023-01-26T07:41:10.201Z,59.35
2023-01-26T07:42:42.024Z,59.44
2023-01-26T07:44:13.720Z,59.53
2023-01-26T07:45:52.110Z,59.39
2023-01-26T07:47:23.658Z,59.45
2023-01-26T07:48:58.383Z,59.57
2023-01-26T07:50:56.875Z,59.46
2023-01-26T07:52:35.635Z,59.50
2023-01-26T07:57:11.164Z,59.19
2023-01-26T07:58:43.285Z,59.31
2023-01-26T08:00:15.558Z,59.21
2023-01-26T08:01:48.982Z,59.35
2023-01-26T08:03:20.799Z,58.97
2023-01-26T08:04:52.471Z,58.85
2023-01-26T08:06:25.087Z,59.21
2023-01-26T08:08:00.107Z,59.17
2023-01-26T08:09:31.951Z,59.26
2023-01-26T08:11:04.431Z,58.71
2023-01-26T08:12:39.557Z,58.72
2023-01-26T08:14:12.746Z,58.67
2023-01-26T08:15:44.697Z,58.90
2023-01-26T08:17:17.813Z,58.64
2023-01-26T08:18:50.135Z,58.99
2023-01-26T08:20:21.968Z,58.74
2023-01-26T08:21:54.623Z,58.93
2023-01-26T08:23:26.576Z,58.72
2023-01-26T08:24:58.308Z,58.82
2023-01-26T08:26:30.107Z,58.96
2023-01-26T08:28:01.993Z,59.19
2023-01-26T08:29:34.088Z,58.60
2023-01-26T08:31:06.307Z,59.15
2023-01-26T08:32:38.050Z,58.82
2023-01-26T08:34:09.874Z,59.21
2023-01-26T08:35:41.531Z,59.02
2023-01-26T08:37:13.152Z,58.77
2023-01-26T08:38:45.058Z,58.78
2023-01-26T08:40:16.836Z,59.05
2023-01-26T08:41:48.476Z,59.10
2023-01-26T08:43:20.075Z,59.46
2023-01-26T08:44:52.733Z,58.56
2023-01-26T08:46:24.415Z,58.80
2023-01-26T08:47:56.145Z,58.54
2023-01-26T08:49:28.021Z,58.67
2023-01-26T08:51:00.418Z,58.90
2023-01-26T08:52:32.542Z,58.83
2023-01-26T08:54:08.447Z,59.14
2023-01-26T08:55:40.051Z,59.10
2023-01-26T08:57:12.475Z,58.69
2023-01-26T08:58:44.653Z,59.16
2023-01-26T09:00:16.912Z,59.06
2023-01-26T09:01:51.015Z,58.82
2023-01-26T09:03:23.127Z,58.90
2023-01-26T09:04:54.681Z,58.78
2023-01-26T09:06:28.730Z,59.06
2023-01-26T09:08:00.442Z,58.79
2023-01-26T09:09:32.221Z,58.61
2023-01-26T09:11:06.234Z,58.94
2023-01-26T09:12:40.734Z,58.77
2023-01-26T09:14:12.834Z,58.64
2023-01-26T09:15:44.857Z,58.31
2023-01-26T09:17:16.663Z,58.47
2023-01-26T09:18:54.317Z,58.37
2023-01-26T09:20:26.018Z,58.94
2023-01-26T09:21:58.054Z,58.81
2023-01-26T09:23:29.869Z,58.63
2023-01-26T09:25:02.222Z,58.81
2023-01-26T09:26:34.167Z,59.07
2023-01-26T09:28:06.528Z,58.59
2023-01-26T09:29:38.149Z,58.28
2023-01-26T09:31:13.841Z,58.70
2023-01-26T09:32:45.693Z,58.65
2023-01-26T09:34:17.443Z,58.95
2023-01-26T09:35:49.624Z,58.59
2023-01-26T09:37:21.480Z,58.76
2023-01-26T09:38:54.283Z,58.83
2023-01-26T09:40:44.697Z,58.80
2023-01-26T09:42:35.292Z,59.03
2023-01-26T09:44:09.548Z,59.01
2023-01-26T09:45:47.316Z,58.81
2023-01-26T09:47:39.365Z,58.61
2023-01-26T09:49:21.549Z,58.84
2023-01-26T09:50:53.273Z,58.83
2023-01-26T09:52:35.811Z,58.69
2023-01-26T09:54:26.951Z,58.78
2023-01-26T09:55:58.729Z,58.28
2023-01-26T09:57:36.897Z,58.24
2023-01-26T09:59:17.601Z,58.70
2023-01-26T10:00:50.568Z,58.42
2023-01-26T10:02:22.374Z,58.76
2023-01-26T10:04:03.919Z,58.59
2023-01-26T10:05:36.435Z,58.79
2023-01-26T10:07:14.042Z,58.32
2023-01-26T10:08:45.611Z,58.65
2023-01-26T10:10:19.713Z,58.75
2023-01-26T10:11:52.711Z,58.36
2023-01-26T10:13:24.791Z,58.71
2023-01-26T10:15:01.608Z,58.66
2023-01-26T10:16:34.005Z,58.64
2023-01-26T10:18:09.343Z,58.12
2023-01-26T10:19:51.426Z,58.60
2023-01-26T10:21:23.808Z,58.73
2023-01-26T10:22:56.228Z,58.31
2023-01-26T10:24:28.112Z,58.51
2023-01-26T10:26:19.461Z,58.56
2023-01-26T10:27:55.872Z,58.41
2023-01-26T10:29:35.759Z,58.50
2023-01-26T10:31:16.063Z,58.48
2023-01-26T10:32:54.578Z,58.54
2023-01-26T10:34:31.309Z,58.50
2023-01-26T10:36:09.449Z,58.47
2023-01-26T10:37:46.755Z,58.21
2023-01-26T10:41:42.887Z,58.09
2023-01-26T10:43:17.831Z,58.01
2023-01-26T10:44:49.802Z,57.91
2023-01-26T10:46:28.248Z,58.23
2023-01-26T10:48:03.813Z,57.79
2023-01-26T10:49:35.728Z,57.83
2023-01-26T10:51:15.171Z,57.67
2023-01-26T10:53:03.344Z,58.26
2023-01-26T10:54:37.411Z,57.67
2023-01-26T10:56:16.493Z,57.96
2023-01-26T10:57:54.321Z,57.64
2023-01-26T11:01:21.893Z,57.78
2023-01-26T11:03:18.226Z,57.74
2023-01-26T11:05:12.281Z,57.73
2023-01-26T11:06:44.626Z,57.83
2023-01-26T11:08:34.157Z,57.28
2023-01-26T11:10:19.467Z,57.96
2023-01-26T11:12:06.201Z,57.45
2023-01-26T11:13:38.339Z,57.24
2023-01-26T11:15:36.190Z,57.22
2023-01-26T11:17:08.283Z,57.90
2023-01-26T11:18:47.380Z,57.85
2023-01-26T11:20:28.826Z,57.82
2023-01-26T11:22:02.576Z,57.58
2023-01-26T11:23:38.928Z,57.46
2023-01-26T11:25:25.705Z,57.23
2023-01-26T11:27:12.305Z,57.60
2023-01-26T11:28:50.203Z,57.43
2023-01-26T11:30:35.443Z,57.80
2023-01-26T11:32:10.126Z,57.75
2023-01-26T11:34:08.279Z,57.59
2023-01-26T11:35:43.583Z,57.39
2023-01-26T11:37:23.117Z,57.45
2023-01-26T11:38:56.111Z,57.61
2023-01-26T11:42:43.100Z,58.00
2023-01-26T11:44:25.060Z,57.44
2023-01-26T11:46:03.812Z,57.53
2023-01-26T11:47:36.688Z,57.60
2023-01-26T11:49:23.742Z,57.35
2023-01-26T11:50:59.895Z,57.58
2023-01-26T11:52:47.181Z,57.76
2023-01-26T11:54:21.937Z,57.62
2023-01-26T11:56:07.984Z,58.03
2023-01-26T11:57:39.757Z,57.08
2023-01-26T11:59:14.053Z,57.29
2023-01-26T12:01:07.091Z,57.89
2023-01-26T12:02:39.256Z,57.71
2023-01-26T12:04:31.415Z,57.68
2023-01-26T12:06:06.235Z,57.82
2023-01-26T12:07:51.704Z,57.52
2023-01-26T12:09:38.421Z,57.37
2023-01-26T12:11:23.555Z,57.51
2023-01-26T12:13:06.343Z,57.43
2023-01-26T12:14:45.067Z,57.69
2023-01-26T12:16:36.858Z,58.06
2023-01-26T12:18:09.717Z,58.02
2023-01-26T12:19:44.521Z,57.59
2023-01-26T12:21:16.222Z,57.62
2023-01-26T12:23:06.756Z,57.30
2023-01-26T12:25:28.938Z,57.86
2023-01-26T12:26:49.860Z,57.97
2023-01-26T12:28:34.095Z,58.15
2023-01-26T12:30:25.931Z,57.73
2023-01-26T12:31:59.518Z,57.84
2023-01-26T12:33:32.087Z,58.15
2023-01-26T12:35:04.247Z,57.91
2023-01-26T12:37:02.019Z,57.58
2023-01-26T12:38:37.309Z,57.84
2023-01-26T12:40:11.757Z,58.02
2023-01-26T12:41:43.374Z,57.65
2023-01-26T12:43:18.981Z,57.60
2023-01-26T12:44:53.186Z,57.61
2023-01-26T12:46:24.980Z,58.27
2023-01-26T12:48:05.221Z,57.74
2023-01-26T12:49:48.757Z,57.47
2023-01-26T12:51:21.001Z,57.73
2023-01-26T12:53:02.631Z,58.17
2023-01-26T12:54:38.303Z,57.98
2023-01-26T12:56:12.511Z,58.14
2023-01-26T12:57:58.585Z,57.66
2023-01-26T12:59:47.949Z,57.31
2023-01-26T13:01:21.216Z,58.00
2023-01-26T13:02:55.273Z,58.15
2023-01-26T13:04:26.917Z,57.73
2023-01-26T13:05:58.703Z,58.00
2023-01-26T13:07:34.947Z,57.34
2023-01-26T13:09:20.005Z,57.46
2023-01-26T13:10:51.718Z,56.88
2023-01-26T13:12:42.324Z,57.09
2023-01-26T13:14:29.375Z,56.96
2023-01-26T13:16:16.906Z,56.75
2023-01-26T13:17:53.356Z,56.94
2023-01-26T13:19:52.087Z,56.46
2023-01-26T13:21:28.422Z,56.48
2023-01-26T13:23:00.119Z,56.75
2023-01-26T13:24:35.015Z,56.49
2023-01-26T13:26:12.248Z,56.59
2023-01-26T13:27:47.454Z,56.34
2023-01-26T13:29:27.601Z,56.99
2023-01-26T13:31:05.648Z,57.07
2023-01-26T13:32:43.369Z,57.26
2023-01-26T13:34:15.035Z,56.82
2023-01-26T13:35:46.746Z,56.98
2023-01-26T13:37:21.813Z,56.72
2023-01-26T13:39:05.793Z,56.72
2023-01-26T13:40:41.963Z,56.54
2023-01-26T13:42:16.122Z,56.96
2023-01-26T13:43:52.827Z,56.89
2023-01-26T13:45:24.347Z,56.89
2023-01-26T13:46:57.252Z,57.04
2023-01-26T13:48:38.104Z,56.89
2023-01-26T13:50:23.237Z,57.19
2023-01-26T13:51:54.863Z,56.93
2023-01-26T13:53:38.777Z,56.89
2023-01-26T13:55:12.938Z,56.84
2023-01-26T13:57:02.085Z,56.86
2023-01-26T13:58:35.161Z,56.98
2023-01-26T14:00:14.748Z,56.68
2023-01-26T14:01:52.518Z,56.77
2023-01-26T14:03:24.965Z,57.09
2023-01-26T14:04:58.291Z,57.12
2023-01-26T14:06:30.476Z,57.10
2023-01-26T14:08:01.991Z,57.44
2023-01-26T14:09:35.190Z,57.16
2023-01-26T14:11:15.144Z,57.15
2023-01-26T14:12:47.365Z,57.11
2023-01-26T14:14:25.634Z,56.93
2023-01-26T14:16:00.736Z,56.91
2023-01-26T14:17:33.089Z,56.99
2023-01-26T14:19:06.035Z,57.36
2023-01-26T14:20:39.469Z,57.00
2023-01-26T14:22:12.894Z,56.92
2023-01-26T14:23:44.430Z,57.10
2023-01-26T14:25:19.910Z,57.44
2023-01-26T14:26:51.997Z,57.04
2023-01-26T14:28:24.234Z,57.31
2023-01-26T14:29:55.851Z,57.29
2023-01-26T14:31:27.997Z,56.77
2023-01-26T14:33:06.659Z,56.93
2023-01-26T14:34:38.321Z,57.12
2023-01-26T14:36:14.887Z,57.68
2023-01-26T14:37:46.701Z,57.32
2023-01-26T14:39:20.305Z,57.38
2023-01-26T14:40:52.609Z,57.22
2023-01-26T14:42:24.127Z,57.67
2023-01-26T14:43:59.531Z,57.83
2023-01-26T14:45:32.001Z,57.18
2023-01-26T14:47:04.953Z,57.33
2023-01-26T14:49:02.817Z,57.60
2023-01-26T14:50:34.930Z,57.76
2023-01-26T14:52:06.446Z,57.44
2023-01-26T14:53:38.107Z,57.62
2023-01-26T14:55:28.357Z,57.62
2023-01-26T14:57:00.128Z,57.14
2023-01-26T14:58:32.069Z,57.21
2023-01-26T15:00:09.002Z,57.50
2023-01-26T15:01:40.646Z,57.74
2023-01-26T15:03:47.721Z,57.59
2023-01-26T15:05:21.158Z,57.74
2023-01-26T15:06:53.868Z,57.42
2023-01-26T15:08:25.423Z,57.29
2023-01-26T15:09:57.153Z,57.78
2023-01-26T15:11:54.783Z,57.58
2023-01-26T15:13:29.509Z,58.12
2023-01-26T15:15:01.126Z,58.01
2023-01-26T15:16:32.720Z,57.88
2023-01-26T15:18:05.452Z,57.91
2023-01-26T15:19:40.888Z,57.56
2023-01-26T15:21:13.681Z,57.63
2023-01-26T15:22:52.489Z,57.80
2023-01-26T15:24:24.709Z,57.87
2023-01-26T15:25:56.331Z,58.07
2023-01-26T15:27:34.107Z,57.75
2023-01-26T15:29:06.198Z,57.53
2023-01-26T15:30:38.789Z,57.91
2023-01-26T15:32:27.016Z,57.65
2023-01-26T15:33:59.149Z,58.03
2023-01-26T15:35:32.312Z,57.46
2023-01-26T15:37:04.809Z,57.85
2023-01-26T15:38:36.350Z,57.64
2023-01-26T15:40:08.901Z,57.05
2023-01-26T15:41:41.041Z,57.32
2023-01-26T15:43:16.060Z,57.10
2023-01-26T15:44:47.615Z,57.15
2023-01-26T15:46:19.222Z,56.83
2023-01-26T15:47:51.058Z,56.76
2023-01-26T15:49:23.650Z,56.95
2023-01-26T15:50:55.318Z,57.28
2023-01-26T15:52:30.285Z,57.35
2023-01-26T15:54:01.917Z,57.49
2023-01-26T15:55:33.600Z,56.90
2023-01-26T15:57:05.281Z,57.49
2023-01-26T15:58:37.002Z,57.11
2023-01-26T16:00:10.395Z,57.13
2023-01-26T16:01:41.936Z,56.91
2023-01-26T16:03:16.925Z,56.93
2023-01-26T16:04:48.703Z,57.10
2023-01-26T16:06:30.243Z,57.42
2023-01-26T16:08:01.799Z,56.72
2023-01-26T16:09:33.298Z,56.63
2023-01-26T16:11:05.980Z,56.69
2023-01-26T16:12:37.560Z,56.64
2023-01-26T16:14:10.215Z,56.79
2023-01-26T16:15:42.535Z,56.83
2023-01-26T16:17:14.706Z,56.80
2023-01-26T16:18:46.465Z,56.94
2023-01-26T16:20:18.417Z,56.88
2023-01-26T16:21:49.905Z,56.80
2023-01-26T16:23:22.934Z,56.98
2023-01-26T16:24:54.623Z,56.84
2023-01-26T16:26:26.242Z,57.08
2023-01-26T16:27:58.131Z,57.32
2023-01-26T16:29:29.834Z,56.84
2023-01-26T16:31:02.647Z,56.97
2023-01-26T16:32:34.902Z,56.69
2023-01-26T16:34:06.568Z,56.93
2023-01-26T16:35:38.285Z,56.73
2023-01-26T16:37:09.807Z,56.65
2023-01-26T16:38:41.628Z,56.90
2023-01-26T16:40:14.299Z,57.03
2023-01-26T16:41:46.221Z,56.90
2023-01-26T16:43:35.656Z,56.97
2023-01-26T16:45:07.740Z,56.88
2023-01-26T16:46:39.480Z,56.88
2023-01-26T16:48:14.562Z,57.01
2023-01-26T16:49:46.064Z,57.01
2023-01-26T16:51:27.562Z,56.99
2023-01-26T16:52:59.214Z,56.89
2023-01-26T16:54:30.990Z,56.85
2023-01-26T16:56:02.643Z,56.64
2023-01-26T16:57:34.234Z,57.04
2023-01-26T16:59:06.079Z,56.82
2023-01-26T17:00:37.764Z,57.30
2023-01-26T17:02:12.323Z,57.02
2023-01-26T17:03:44.069Z,56.64
2023-01-26T17:05:16.464Z,56.67
2023-01-26T17:06:48.276Z,56.42
2023-01-26T17:08:20.506Z,56.65
2023-01-26T17:09:52.752Z,55.79
2023-01-26T17:11:27.612Z,56.16
2023-01-26T17:12:59.649Z,55.99
2023-01-26T17:14:31.455Z,56.33
2023-01-26T17:16:03.376Z,56.12
2023-01-26T17:17:35.060Z,55.88
2023-01-26T17:19:08.982Z,56.03
2023-01-26T17:20:42.241Z,55.96
2023-01-26T17:22:13.814Z,56.51
2023-01-26T17:23:48.063Z,56.13
2023-01-26T17:25:19.902Z,56.22
2023-01-26T17:26:51.511Z,56.00
2023-01-26T17:28:23.195Z,56.60
2023-01-26T17:29:56.737Z,56.55
2023-01-26T17:31:28.832Z,56.30
2023-01-26T17:33:02.079Z,56.19
2023-01-26T17:34:34.992Z,56.60
2023-01-26T17:36:07.053Z,56.25
2023-01-26T17:37:39.599Z,56.20
2023-01-26T17:39:11.210Z,56.16
2023-01-26T17:40:42.843Z,55.98
2023-01-26T17:42:14.410Z,56.19
2023-01-26T17:43:46.260Z,56.40
2023-01-26T17:45:18.297Z,56.45
2023-01-26T17:46:49.989Z,55.97
2023-01-26T17:48:21.577Z,56.38
2023-01-26T17:49:53.142Z,56.16
2023-01-26T17:51:24.979Z,55.96
2023-01-26T17:52:56.459Z,56.02
2023-01-26T17:54:28.000Z,55.93
2023-01-26T17:55:59.616Z,56.27
2023-01-26T17:57:31.498Z,56.11
2023-01-26T17:59:03.540Z,55.86
2023-01-26T18:00:35.410Z,56.02
2023-01-26T18:02:06.969Z,56.10
2023-01-26T18:03:41.821Z,56.05
2023-01-26T18:05:13.721Z,56.14
2023-01-26T18:06:45.434Z,56.44
2023-01-26T18:08:17.036Z,56.38
2023-01-26T18:09:48.929Z,56.51
2023-01-26T18:11:20.542Z,56.16
2023-01-26T18:12:52.403Z,56.10
2023-01-26T18:14:23.996Z,56.02
2023-01-26T18:15:56.007Z,56.08
2023-01-26T18:17:27.487Z,55.98
2023-01-26T18:18:59.171Z,56.12
2023-01-26T18:20:30.721Z,56.13
2023-01-26T18:22:02.351Z,56.18
2023-01-26T18:23:33.976Z,55.95
2023-01-26T18:25:05.712Z,56.21
2023-01-26T18:26:37.565Z,55.85
2023-01-26T18:28:09.521Z,56.21
2023-01-26T18:29:41.480Z,56.07
2023-01-26T18:31:16.949Z,55.83
2023-01-26T18:32:49.460Z,56.58
2023-01-26T18:34:21.379Z,56.78
2023-01-26T18:35:54.017Z,56.26
2023-01-26T18:37:25.598Z,56.67
2023-01-26T18:38:58.338Z,56.36
2023-01-26T18:40:30.720Z,56.50
2023-01-26T18:42:02.635Z,56.02
2023-01-26T18:43:34.409Z,56.18
2023-01-26T18:45:06.509Z,56.24
2023-01-26T18:46:38.092Z,56.32
2023-01-26T18:48:09.912Z,56.74
2023-01-26T18:49:41.493Z,56.95
2023-01-26T18:51:13.115Z,56.67
2023-01-26T18:52:44.829Z,56.56
2023-01-26T18:54:16.603Z,57.05
2023-01-26T18:55:48.159Z,56.63
2023-01-26T18:57:19.802Z,56.82
2023-01-26T18:58:51.861Z,57.05
2023-01-26T19:00:23.455Z,56.51
2023-01-26T19:01:55.697Z,56.98
2023-01-26T19:03:27.429Z,57.03
2023-01-26T19:04:59.739Z,57.05
2023-01-26T19:06:32.803Z,57.27
2023-01-26T19:08:10.452Z,57.04
2023-01-26T19:09:42.052Z,56.63
2023-01-26T19:11:14.640Z,57.33
2023-01-26T19:12:48.698Z,56.97
2023-01-26T19:14:20.344Z,57.76
2023-01-26T19:15:52.129Z,57.51
2023-01-26T19:17:24.084Z,57.27
2023-01-26T19:18:56.079Z,57.18
2023-01-26T19:20:27.764Z,57.07
2023-01-26T19:21:59.447Z,57.01
2023-01-26T19:23:31.294Z,57.15
2023-01-26T19:25:03.083Z,57.67
2023-01-26T19:26:34.761Z,57.96
2023-01-26T19:28:06.378Z,57.83
2023-01-26T19:29:37.964Z,57.23
2023-01-26T19:31:10.026Z,57.66
2023-01-26T19:33:01.609Z,57.89
2023-01-26T19:34:33.884Z,57.75
2023-01-26T19:36:06.216Z,57.74
2023-01-26T19:37:38.037Z,57.41
2023-01-26T19:39:11.258Z,57.88
2023-01-26T19:40:46.291Z,58.09
2023-01-26T19:42:17.830Z,58.26
2023-01-26T19:43:50.622Z,57.99
2023-01-26T19:45:22.349Z,57.82
2023-01-26T19:46:54.856Z,57.97
2023-01-26T19:48:26.945Z,58.13
2023-01-26T19:49:58.986Z,58.58
2023-01-26T19:51:31.604Z,58.15
2023-01-26T19:53:03.453Z,58.00
2023-01-26T19:54:35.169Z,58.19
2023-01-26T19:56:11.037Z,58.07
2023-01-26T19:57:43.290Z,58.24
2023-01-26T19:59:15.076Z,58.56
2023-01-26T20:00:47.611Z,57.99
2023-01-26T20:02:19.821Z,58.05
2023-01-26T20:03:52.318Z,58.36
2023-01-26T20:05:24.592Z,58.01
2023-01-26T20:06:56.225Z,58.65
2023-01-26T20:08:29.764Z,58.30
2023-01-26T20:10:01.373Z,58.20
2023-01-26T20:11:34.326Z,58.36
2023-01-26T20:13:06.381Z,58.99
2023-01-26T20:14:38.015Z,59.15
2023-01-26T20:16:11.134Z,59.07
2023-01-26T20:17:43.006Z,59.28
2023-01-26T20:19:15.303Z,58.84
2023-01-26T20:20:51.069Z,58.58
2023-01-26T20:22:24.397Z,58.95
2023-01-26T20:23:56.395Z,59.01
2023-01-26T20:25:29.231Z,58.54
2023-01-26T20:27:00.965Z,58.91
2023-01-26T20:28:32.989Z,58.54
2023-01-26T20:30:05.583Z,58.62
2023-01-26T20:31:37.829Z,58.29
2023-01-26T20:33:09.658Z,58.40
2023-01-26T20:34:41.572Z,58.94
2023-01-26T20:36:13.851Z,58.46
2023-01-26T20:37:46.223Z,59.28